North Massapequa, New York
Current Conditions -  °F | °C
As of 9:53 PM on Saturday 25 Oct 2014 (Local Time) from KFRG Reporting Station
Clear Clear  
Wind Chill: 61°   Ceiling: Unl
Heat Index: 61°   Visibility: 10mi
Dew Point: 49°   Wind: 9mph
Humidity: 64%   Direction: 230°SW
Pressure: 29.61"   Gusts: NA
Location:  40.685°N, 73.4685°W
Report Text: KFRG 260153Z 23008KT 10SM CLR 16/09 A2961 RMK AO2 SLP025 T01610094
Loading
Personal Weather Stations






























Interactive Weather Map
Tropical Storm Tracking
New forecast layout! Learn more

10-Day Weather Forecast

Advertisements
Track Severe Weather on mobile